sensor_id;sensor_type;location;lat;lon;timestamp;P1;durP1;ratioP1;P2;durP2;ratioP2
69185;SDS011;56298;49.246;9.410;2023-02-12T00:02:04;40.43;;;24.17;;
69185;SDS011;56298;49.246;9.410;2023-02-12T00:04:29;38.90;;;23.63;;
69185;SDS011;56298;49.246;9.410;2023-02-12T00:06:54;40.43;;;24.00;;
69185;SDS011;56298;49.246;9.410;2023-02-12T00:09:19;42.30;;;24.53;;
69185;SDS011;56298;49.246;9.410;2023-02-12T00:11:45;37.80;;;23.10;;
69185;SDS011;56298;49.246;9.410;2023-02-12T00:14:10;39.50;;;22.83;;
69185;SDS011;56298;49.246;9.410;2023-02-12T00:16:35;37.70;;;23.43;;
69185;SDS011;56298;49.246;9.410;2023-02-12T00:19:00;38.07;;;23.60;;
69185;SDS011;56298;49.246;9.410;2023-02-12T00:21:26;36.83;;;22.37;;
69185;SDS011;56298;49.246;9.410;2023-02-12T00:23:51;36.53;;;22.53;;
69185;SDS011;56298;49.246;9.410;2023-02-12T00:26:18;37.40;;;22.63;;
69185;SDS011;56298;49.246;9.410;2023-02-12T00:28:44;39.28;;;22.88;;
69185;SDS011;56298;49.246;9.410;2023-02-12T00:31:10;37.50;;;22.48;;
69185;SDS011;56298;49.246;9.410;2023-02-12T00:33:37;40.40;;;23.75;;
69185;SDS011;56298;49.246;9.410;2023-02-12T00:36:03;37.60;;;23.17;;
69185;SDS011;56298;49.246;9.410;2023-02-12T00:38:29;36.83;;;22.42;;
69185;SDS011;56298;49.246;9.410;2023-02-12T00:40:54;38.67;;;22.30;;
69185;SDS011;56298;49.246;9.410;2023-02-12T00:43:20;37.10;;;22.50;;
69185;SDS011;56298;49.246;9.410;2023-02-12T00:45:45;36.30;;;22.37;;
69185;SDS011;56298;49.246;9.410;2023-02-12T00:48:11;36.65;;;22.58;;
69185;SDS011;56298;49.246;9.410;2023-02-12T00:50:37;36.57;;;22.70;;
69185;SDS011;56298;49.246;9.410;2023-02-12T00:53:02;35.73;;;21.93;;
69185;SDS011;56298;49.246;9.410;2023-02-12T00:55:28;36.13;;;21.63;;
69185;SDS011;56298;49.246;9.410;2023-02-12T00:57:53;36.23;;;22.00;;
69185;SDS011;56298;49.246;9.410;2023-02-12T01:00:18;38.33;;;21.70;;
69185;SDS011;56298;49.246;9.410;2023-02-12T01:02:44;33.60;;;21.53;;
69185;SDS011;56298;49.246;9.410;2023-02-12T01:05:09;37.93;;;21.67;;
69185;SDS011;56298;49.246;9.410;2023-02-12T01:07:34;33.70;;;22.00;;
69185;SDS011;56298;49.246;9.410;2023-02-12T01:10:00;37.55;;;22.45;;
69185;SDS011;56298;49.246;9.410;2023-02-12T01:12:25;37.20;;;21.60;;
69185;SDS011;56298;49.246;9.410;2023-02-12T01:14:50;34.83;;;22.17;;
69185;SDS011;56298;49.246;9.410;2023-02-12T01:17:16;37.40;;;22.65;;
69185;SDS011;56298;49.246;9.410;2023-02-12T01:19:41;36.43;;;21.73;;
69185;SDS011;56298;49.246;9.410;2023-02-12T01:22:06;37.30;;;21.63;;
69185;SDS011;56298;49.246;9.410;2023-02-12T01:24:32;35.53;;;21.60;;
69185;SDS011;56298;49.246;9.410;2023-02-12T01:26:57;37.07;;;21.87;;
69185;SDS011;56298;49.246;9.410;2023-02-12T01:29:22;36.07;;;22.63;;
69185;SDS011;56298;49.246;9.410;2023-02-12T01:31:48;35.63;;;22.57;;
69185;SDS011;56298;49.246;9.410;2023-02-12T01:34:13;38.45;;;22.92;;
69185;SDS011;56298;49.246;9.410;2023-02-12T01:36:38;33.23;;;21.00;;
69185;SDS011;56298;49.246;9.410;2023-02-12T01:39:04;34.60;;;21.13;;
69185;SDS011;56298;49.246;9.410;2023-02-12T01:41:31;35.17;;;21.73;;
69185;SDS011;56298;49.246;9.410;2023-02-12T01:46:33;34.80;;;21.13;;
69185;SDS011;56298;49.246;9.410;2023-02-12T01:48:59;35.80;;;21.15;;
69185;SDS011;56298;49.246;9.410;2023-02-12T01:51:25;34.28;;;21.67;;
69185;SDS011;56298;49.246;9.410;2023-02-12T01:53:53;35.92;;;21.98;;
69185;SDS011;56298;49.246;9.410;2023-02-12T01:56:20;36.63;;;21.50;;
69185;SDS011;56298;49.246;9.410;2023-02-12T01:58:47;37.13;;;22.23;;
69185;SDS011;56298;49.246;9.410;2023-02-12T02:01:17;39.97;;;23.47;;
69185;SDS011;56298;49.246;9.410;2023-02-12T02:03:47;36.55;;;23.20;;
69185;SDS011;56298;49.246;9.410;2023-02-12T02:06:16;39.40;;;22.63;;
69185;SDS011;56298;49.246;9.410;2023-02-12T02:08:44;38.08;;;22.73;;
69185;SDS011;56298;49.246;9.410;2023-02-12T02:11:10;41.80;;;23.13;;
69185;SDS011;56298;49.246;9.410;2023-02-12T02:13:54;35.90;;;23.15;;
69185;SDS011;56298;49.246;9.410;2023-02-12T02:16:40;35.70;;;23.38;;
69185;SDS011;56298;49.246;9.410;2023-02-12T02:19:54;35.53;;;22.40;;
69185;SDS011;56298;49.246;9.410;2023-02-12T02:27:38;37.70;;;22.33;;
69185;SDS011;56298;49.246;9.410;2023-02-12T02:32:56;36.40;;;22.08;;
69185;SDS011;56298;49.246;9.410;2023-02-12T02:41:14;36.58;;;22.48;;
69185;SDS011;56298;49.246;9.410;2023-02-12T02:43:48;32.72;;;20.80;;
69185;SDS011;56298;49.246;9.410;2023-02-12T02:48:55;32.28;;;20.42;;
69185;SDS011;56298;49.246;9.410;2023-02-12T02:51:36;33.88;;;20.80;;
69185;SDS011;56298;49.246;9.410;2023-02-12T02:54:10;35.95;;;20.80;;
69185;SDS011;56298;49.246;9.410;2023-02-12T02:56:40;36.70;;;21.70;;
69185;SDS011;56298;49.246;9.410;2023-02-12T02:59:12;37.20;;;21.53;;
69185;SDS011;56298;49.246;9.410;2023-02-12T03:01:43;36.45;;;21.95;;
69185;SDS011;56298;49.246;9.410;2023-02-12T03:04:17;36.90;;;21.45;;
69185;SDS011;56298;49.246;9.410;2023-02-12T03:06:58;36.95;;;21.73;;
69185;SDS011;56298;49.246;9.410;2023-02-12T03:09:33;36.10;;;21.38;;
69185;SDS011;56298;49.246;9.410;2023-02-12T03:12:04;33.13;;;20.80;;
69185;SDS011;56298;49.246;9.410;2023-02-12T03:14:37;33.72;;;20.98;;
69185;SDS011;56298;49.246;9.410;2023-02-12T03:17:14;35.60;;;21.33;;
69185;SDS011;56298;49.246;9.410;2023-02-12T03:19:45;35.93;;;21.13;;
69185;SDS011;56298;49.246;9.410;2023-02-12T03:22:20;34.45;;;20.95;;
69185;SDS011;56298;49.246;9.410;2023-02-12T03:25:06;34.33;;;21.30;;
69185;SDS011;56298;49.246;9.410;2023-02-12T03:27:39;35.03;;;20.77;;
69185;SDS011;56298;49.246;9.410;2023-02-12T03:30:10;37.80;;;21.70;;
69185;SDS011;56298;49.246;9.410;2023-02-12T03:37:54;37.25;;;22.17;;
69185;SDS011;56298;49.246;9.410;2023-02-12T03:40:31;39.07;;;22.33;;
69185;SDS011;56298;49.246;9.410;2023-02-12T03:43:03;35.40;;;20.75;;
69185;SDS011;56298;49.246;9.410;2023-02-12T03:45:42;33.95;;;20.73;;
69185;SDS011;56298;49.246;9.410;2023-02-12T03:48:45;35.63;;;21.63;;
69185;SDS011;56298;49.246;9.410;2023-02-12T03:53:48;36.60;;;21.77;;
69185;SDS011;56298;49.246;9.410;2023-02-12T03:56:16;35.90;;;21.53;;
69185;SDS011;56298;49.246;9.410;2023-02-12T03:58:44;33.67;;;21.27;;
69185;SDS011;56298;49.246;9.410;2023-02-12T04:01:10;34.63;;;20.80;;
69185;SDS011;56298;49.246;9.410;2023-02-12T04:03:36;36.85;;;21.70;;
69185;SDS011;56298;49.246;9.410;2023-02-12T04:06:02;36.90;;;21.77;;
69185;SDS011;56298;49.246;9.410;2023-02-12T04:08:28;34.67;;;21.55;;
69185;SDS011;56298;49.246;9.410;2023-02-12T04:11:05;37.75;;;22.25;;
69185;SDS011;56298;49.246;9.410;2023-02-12T04:13:42;43.00;;;22.90;;
69185;SDS011;56298;49.246;9.410;2023-02-12T04:16:24;38.45;;;22.77;;
69185;SDS011;56298;49.246;9.410;2023-02-12T04:19:04;37.43;;;22.60;;
69185;SDS011;56298;49.246;9.410;2023-02-12T04:21:38;36.07;;;22.17;;
69185;SDS011;56298;49.246;9.410;2023-02-12T04:24:31;36.20;;;21.90;;
69185;SDS011;56298;49.246;9.410;2023-02-12T04:27:13;34.25;;;20.58;;
69185;SDS011;56298;49.246;9.410;2023-02-12T04:29:53;35.72;;;21.33;;
69185;SDS011;56298;49.246;9.410;2023-02-12T04:32:37;36.65;;;22.58;;
69185;SDS011;56298;49.246;9.410;2023-02-12T04:35:14;35.42;;;22.02;;
69185;SDS011;56298;49.246;9.410;2023-02-12T04:37:56;35.70;;;21.60;;
69185;SDS011;56298;49.246;9.410;2023-02-12T04:40:23;36.35;;;21.67;;
69185;SDS011;56298;49.246;9.410;2023-02-12T04:42:50;34.80;;;20.55;;
69185;SDS011;56298;49.246;9.410;2023-02-12T04:45:20;38.17;;;21.38;;
69185;SDS011;56298;49.246;9.410;2023-02-12T04:47:52;33.97;;;21.00;;
69185;SDS011;56298;49.246;9.410;2023-02-12T04:50:17;34.50;;;20.50;;
69185;SDS011;56298;49.246;9.410;2023-02-12T04:52:43;33.03;;;21.10;;
69185;SDS011;56298;49.246;9.410;2023-02-12T04:55:08;35.60;;;20.77;;
69185;SDS011;56298;49.246;9.410;2023-02-12T04:57:33;36.70;;;21.77;;
69185;SDS011;56298;49.246;9.410;2023-02-12T04:59:59;36.17;;;22.37;;
69185;SDS011;56298;49.246;9.410;2023-02-12T05:02:24;35.00;;;21.70;;
69185;SDS011;56298;49.246;9.410;2023-02-12T05:04:49;38.07;;;21.77;;
69185;SDS011;56298;49.246;9.410;2023-02-12T05:07:14;34.87;;;21.50;;
69185;SDS011;56298;49.246;9.410;2023-02-12T05:09:40;36.77;;;21.20;;
69185;SDS011;56298;49.246;9.410;2023-02-12T05:12:06;38.10;;;21.03;;
69185;SDS011;56298;49.246;9.410;2023-02-12T05:14:31;34.33;;;21.23;;
69185;SDS011;56298;49.246;9.410;2023-02-12T05:16:57;35.50;;;20.70;;
69185;SDS011;56298;49.246;9.410;2023-02-12T05:19:22;35.63;;;21.13;;
69185;SDS011;56298;49.246;9.410;2023-02-12T05:21:48;35.23;;;20.93;;
69185;SDS011;56298;49.246;9.410;2023-02-12T05:24:15;35.53;;;21.30;;
69185;SDS011;56298;49.246;9.410;2023-02-12T05:26:40;36.33;;;22.40;;
69185;SDS011;56298;49.246;9.410;2023-02-12T05:29:05;40.27;;;22.60;;
69185;SDS011;56298;49.246;9.410;2023-02-12T05:31:30;37.63;;;22.20;;
69185;SDS011;56298;49.246;9.410;2023-02-12T05:33:56;36.37;;;22.00;;
69185;SDS011;56298;49.246;9.410;2023-02-12T05:36:22;37.47;;;21.90;;
69185;SDS011;56298;49.246;9.410;2023-02-12T05:38:48;35.40;;;21.20;;
69185;SDS011;56298;49.246;9.410;2023-02-12T05:41:16;36.40;;;21.30;;
69185;SDS011;56298;49.246;9.410;2023-02-12T05:43:45;36.05;;;21.27;;
69185;SDS011;56298;49.246;9.410;2023-02-12T05:46:11;39.20;;;22.23;;
69185;SDS011;56298;49.246;9.410;2023-02-12T05:48:37;35.65;;;22.13;;
69185;SDS011;56298;49.246;9.410;2023-02-12T05:51:04;37.50;;;22.23;;
69185;SDS011;56298;49.246;9.410;2023-02-12T05:53:32;38.75;;;22.58;;
69185;SDS011;56298;49.246;9.410;2023-02-12T05:56:32;36.00;;;22.37;;
69185;SDS011;56298;49.246;9.410;2023-02-12T05:58:58;38.30;;;22.30;;
69185;SDS011;56298;49.246;9.410;2023-02-12T06:01:29;33.95;;;21.30;;
69185;SDS011;56298;49.246;9.410;2023-02-12T06:03:57;38.38;;;21.98;;
69185;SDS011;56298;49.246;9.410;2023-02-12T06:06:24;35.22;;;21.23;;
69185;SDS011;56298;49.246;9.410;2023-02-12T06:08:50;36.05;;;21.20;;
69185;SDS011;56298;49.246;9.410;2023-02-12T06:11:16;40.20;;;22.92;;
69185;SDS011;56298;49.246;9.410;2023-02-12T06:13:41;38.28;;;22.73;;
69185;SDS011;56298;49.246;9.410;2023-02-12T06:16:14;40.87;;;24.13;;
69185;SDS011;56298;49.246;9.410;2023-02-12T06:18:41;40.27;;;23.43;;
69185;SDS011;56298;49.246;9.410;2023-02-12T06:21:06;39.80;;;24.30;;
69185;SDS011;56298;49.246;9.410;2023-02-12T06:23:31;41.53;;;24.47;;
69185;SDS011;56298;49.246;9.410;2023-02-12T06:25:57;43.33;;;24.07;;
69185;SDS011;56298;49.246;9.410;2023-02-12T06:28:22;37.28;;;23.05;;
69185;SDS011;56298;49.246;9.410;2023-02-12T06:30:47;38.13;;;23.00;;
69185;SDS011;56298;49.246;9.410;2023-02-12T06:33:13;38.83;;;23.30;;
69185;SDS011;56298;49.246;9.410;2023-02-12T06:35:38;38.17;;;22.70;;
69185;SDS011;56298;49.246;9.410;2023-02-12T06:38:03;36.40;;;21.73;;
69185;SDS011;56298;49.246;9.410;2023-02-12T06:40:29;40.17;;;23.67;;
69185;SDS011;56298;49.246;9.410;2023-02-12T06:42:54;38.43;;;22.03;;
69185;SDS011;56298;49.246;9.410;2023-02-12T06:45:20;36.33;;;22.27;;
69185;SDS011;56298;49.246;9.410;2023-02-12T06:47:45;36.67;;;21.80;;
69185;SDS011;56298;49.246;9.410;2023-02-12T06:50:11;36.40;;;22.47;;
69185;SDS011;56298;49.246;9.410;2023-02-12T06:52:36;39.17;;;23.70;;
69185;SDS011;56298;49.246;9.410;2023-02-12T06:55:01;40.03;;;24.33;;
69185;SDS011;56298;49.246;9.410;2023-02-12T06:57:27;38.37;;;23.83;;
69185;SDS011;56298;49.246;9.410;2023-02-12T06:59:53;41.13;;;24.02;;
69185;SDS011;56298;49.246;9.410;2023-02-12T07:02:18;38.70;;;23.43;;
69185;SDS011;56298;49.246;9.410;2023-02-12T07:04:44;42.37;;;24.63;;
69185;SDS011;56298;49.246;9.410;2023-02-12T07:07:09;40.07;;;24.50;;
69185;SDS011;56298;49.246;9.410;2023-02-12T07:09:34;38.10;;;24.00;;
69185;SDS011;56298;49.246;9.410;2023-02-12T07:11:59;41.30;;;25.20;;
69185;SDS011;56298;49.246;9.410;2023-02-12T07:14:25;41.67;;;24.57;;
69185;SDS011;56298;49.246;9.410;2023-02-12T07:16:52;41.80;;;25.80;;
69185;SDS011;56298;49.246;9.410;2023-02-12T07:19:20;42.17;;;25.90;;
69185;SDS011;56298;49.246;9.410;2023-02-12T07:21:46;38.83;;;25.57;;
69185;SDS011;56298;49.246;9.410;2023-02-12T07:24:11;41.20;;;24.93;;
69185;SDS011;56298;49.246;9.410;2023-02-12T07:26:38;39.88;;;24.50;;
69185;SDS011;56298;49.246;9.410;2023-02-12T07:29:03;40.83;;;24.87;;
69185;SDS011;56298;49.246;9.410;2023-02-12T07:31:29;41.83;;;24.93;;
69185;SDS011;56298;49.246;9.410;2023-02-12T07:33:55;41.40;;;25.02;;
69185;SDS011;56298;49.246;9.410;2023-02-12T07:36:21;43.55;;;24.50;;
69185;SDS011;56298;49.246;9.410;2023-02-12T07:38:47;41.65;;;24.70;;
69185;SDS011;56298;49.246;9.410;2023-02-12T07:41:23;41.83;;;24.63;;
69185;SDS011;56298;49.246;9.410;2023-02-12T07:43:57;40.72;;;24.33;;
69185;SDS011;56298;49.246;9.410;2023-02-12T07:46:25;41.25;;;24.70;;
69185;SDS011;56298;49.246;9.410;2023-02-12T07:48:56;41.42;;;24.75;;
69185;SDS011;56298;49.246;9.410;2023-02-12T07:51:23;37.95;;;23.90;;
69185;SDS011;56298;49.246;9.410;2023-02-12T07:53:48;39.78;;;23.50;;
69185;SDS011;56298;49.246;9.410;2023-02-12T07:56:15;39.63;;;23.93;;
69185;SDS011;56298;49.246;9.410;2023-02-12T07:58:41;40.33;;;24.40;;
69185;SDS011;56298;49.246;9.410;2023-02-12T08:01:19;40.60;;;24.25;;
69185;SDS011;56298;49.246;9.410;2023-02-12T08:03:47;41.78;;;25.60;;
69185;SDS011;56298;49.246;9.410;2023-02-12T08:06:14;42.78;;;25.45;;
69185;SDS011;56298;49.246;9.410;2023-02-12T08:08:41;40.83;;;25.42;;
69185;SDS011;56298;49.246;9.410;2023-02-12T08:11:07;43.43;;;26.27;;
69185;SDS011;56298;49.246;9.410;2023-02-12T08:13:34;43.05;;;27.02;;
69185;SDS011;56298;49.246;9.410;2023-02-12T08:16:00;43.08;;;26.52;;
69185;SDS011;56298;49.246;9.410;2023-02-12T08:18:29;47.35;;;27.88;;
69185;SDS011;56298;49.246;9.410;2023-02-12T08:20:59;47.00;;;27.40;;
69185;SDS011;56298;49.246;9.410;2023-02-12T08:23:25;45.47;;;27.42;;
69185;SDS011;56298;49.246;9.410;2023-02-12T08:25:50;47.77;;;28.73;;
69185;SDS011;56298;49.246;9.410;2023-02-12T08:28:15;47.77;;;28.83;;
69185;SDS011;56298;49.246;9.410;2023-02-12T08:30:41;44.20;;;27.43;;
69185;SDS011;56298;49.246;9.410;2023-02-12T08:33:06;47.70;;;28.10;;
69185;SDS011;56298;49.246;9.410;2023-02-12T08:35:31;43.70;;;27.77;;
69185;SDS011;56298;49.246;9.410;2023-02-12T08:37:56;48.17;;;28.53;;
69185;SDS011;56298;49.246;9.410;2023-02-12T08:40:22;47.17;;;28.57;;
69185;SDS011;56298;49.246;9.410;2023-02-12T08:42:47;49.03;;;29.47;;
69185;SDS011;56298;49.246;9.410;2023-02-12T08:45:12;48.73;;;29.30;;
69185;SDS011;56298;49.246;9.410;2023-02-12T08:47:37;49.50;;;30.60;;
69185;SDS011;56298;49.246;9.410;2023-02-12T08:50:03;47.53;;;28.97;;
69185;SDS011;56298;49.246;9.410;2023-02-12T08:52:28;45.55;;;29.30;;
69185;SDS011;56298;49.246;9.410;2023-02-12T08:54:54;50.57;;;30.73;;
69185;SDS011;56298;49.246;9.410;2023-02-12T08:57:19;53.57;;;32.27;;
69185;SDS011;56298;49.246;9.410;2023-02-12T08:59:44;58.33;;;32.88;;
69185;SDS011;56298;49.246;9.410;2023-02-12T09:02:09;55.47;;;30.60;;
69185;SDS011;56298;49.246;9.410;2023-02-12T09:04:35;53.43;;;31.30;;
69185;SDS011;56298;49.246;9.410;2023-02-12T09:07:00;51.23;;;31.27;;
69185;SDS011;56298;49.246;9.410;2023-02-12T09:09:26;47.27;;;29.87;;
69185;SDS011;56298;49.246;9.410;2023-02-12T09:11:51;48.40;;;29.70;;
69185;SDS011;56298;49.246;9.410;2023-02-12T09:14:17;47.17;;;29.23;;
69185;SDS011;56298;49.246;9.410;2023-02-12T09:16:47;48.17;;;29.30;;
69185;SDS011;56298;49.246;9.410;2023-02-12T09:19:12;50.03;;;29.37;;
69185;SDS011;56298;49.246;9.410;2023-02-12T09:21:39;49.35;;;29.52;;
69185;SDS011;56298;49.246;9.410;2023-02-12T09:24:05;47.22;;;29.38;;
69185;SDS011;56298;49.246;9.410;2023-02-12T09:26:30;46.40;;;29.53;;
69185;SDS011;56298;49.246;9.410;2023-02-12T09:28:55;47.63;;;29.98;;
69185;SDS011;56298;49.246;9.410;2023-02-12T09:31:25;47.55;;;28.75;;
69185;SDS011;56298;49.246;9.410;2023-02-12T09:34:02;49.58;;;31.30;;
69185;SDS011;56298;49.246;9.410;2023-02-12T09:36:29;50.13;;;30.97;;
69185;SDS011;56298;49.246;9.410;2023-02-12T09:38:55;47.13;;;29.65;;
69185;SDS011;56298;49.246;9.410;2023-02-12T09:41:28;52.00;;;30.73;;
69185;SDS011;56298;49.246;9.410;2023-02-12T09:46:57;49.42;;;30.92;;
69185;SDS011;56298;49.246;9.410;2023-02-12T09:52:20;51.80;;;31.50;;
69185;SDS011;56298;49.246;9.410;2023-02-12T09:54:48;53.50;;;32.53;;
69185;SDS011;56298;49.246;9.410;2023-02-12T09:57:24;59.40;;;32.83;;
69185;SDS011;56298;49.246;9.410;2023-02-12T09:59:55;54.75;;;31.65;;
69185;SDS011;56298;49.246;9.410;2023-02-12T10:02:23;54.25;;;32.15;;
69185;SDS011;56298;49.246;9.410;2023-02-12T10:04:49;51.83;;;31.33;;
69185;SDS011;56298;49.246;9.410;2023-02-12T10:10:12;52.55;;;30.88;;
69185;SDS011;56298;49.246;9.410;2023-02-12T10:13:06;52.15;;;30.50;;
69185;SDS011;56298;49.246;9.410;2023-02-12T10:15:51;49.03;;;30.30;;
69185;SDS011;56298;49.246;9.410;2023-02-12T10:21:00;53.05;;;31.00;;
69185;SDS011;56298;49.246;9.410;2023-02-12T10:26:48;51.88;;;30.70;;
69185;SDS011;56298;49.246;9.410;2023-02-12T10:29:18;50.67;;;30.27;;
69185;SDS011;56298;49.246;9.410;2023-02-12T10:31:47;52.70;;;31.33;;
69185;SDS011;56298;49.246;9.410;2023-02-12T10:34:18;53.08;;;30.83;;
69185;SDS011;56298;49.246;9.410;2023-02-12T10:36:49;49.38;;;30.35;;
69185;SDS011;56298;49.246;9.410;2023-02-12T10:39:26;50.67;;;30.63;;
69185;SDS011;56298;49.246;9.410;2023-02-12T10:41:57;47.13;;;30.30;;
69185;SDS011;56298;49.246;9.410;2023-02-12T10:44:27;47.75;;;29.02;;
69185;SDS011;56298;49.246;9.410;2023-02-12T10:46:53;47.60;;;28.57;;
69185;SDS011;56298;49.246;9.410;2023-02-12T10:49:19;49.37;;;28.90;;
69185;SDS011;56298;49.246;9.410;2023-02-12T10:54:32;47.50;;;28.30;;
69185;SDS011;56298;49.246;9.410;2023-02-12T10:57:11;45.53;;;27.33;;
69185;SDS011;56298;49.246;9.410;2023-02-12T10:59:38;45.08;;;27.33;;
69185;SDS011;56298;49.246;9.410;2023-02-12T11:02:04;47.92;;;27.85;;
69185;SDS011;56298;49.246;9.410;2023-02-12T11:04:52;46.90;;;27.48;;
69185;SDS011;56298;49.246;9.410;2023-02-12T11:07:18;42.85;;;26.02;;
69185;SDS011;56298;49.246;9.410;2023-02-12T11:09:45;42.47;;;26.33;;
69185;SDS011;56298;49.246;9.410;2023-02-12T11:14:57;40.67;;;24.88;;
69185;SDS011;56298;49.246;9.410;2023-02-12T11:17:30;41.17;;;26.40;;
69185;SDS011;56298;49.246;9.410;2023-02-12T11:20:01;40.47;;;26.05;;
69185;SDS011;56298;49.246;9.410;2023-02-12T11:22:50;38.03;;;23.95;;
69185;SDS011;56298;49.246;9.410;2023-02-12T11:25:22;36.45;;;23.50;;
69185;SDS011;56298;49.246;9.410;2023-02-12T11:28:03;35.95;;;22.27;;
69185;SDS011;56298;49.246;9.410;2023-02-12T11:30:29;34.27;;;21.60;;
69185;SDS011;56298;49.246;9.410;2023-02-12T11:33:05;36.67;;;21.45;;
69185;SDS011;56298;49.246;9.410;2023-02-12T11:35:47;35.77;;;21.80;;
69185;SDS011;56298;49.246;9.410;2023-02-12T11:38:17;33.92;;;21.70;;
69185;SDS011;56298;49.246;9.410;2023-02-12T11:40:47;31.38;;;19.52;;
69185;SDS011;56298;49.246;9.410;2023-02-12T11:43:14;32.65;;;20.05;;
69185;SDS011;56298;49.246;9.410;2023-02-12T11:45:43;28.90;;;18.07;;
69185;SDS011;56298;49.246;9.410;2023-02-12T11:48:31;28.42;;;18.63;;
69185;SDS011;56298;49.246;9.410;2023-02-12T11:51:02;28.08;;;18.00;;
69185;SDS011;56298;49.246;9.410;2023-02-12T11:53:31;25.00;;;15.38;;
69185;SDS011;56298;49.246;9.410;2023-02-12T11:55:59;21.90;;;12.68;;
69185;SDS011;56298;49.246;9.410;2023-02-12T11:58:27;20.30;;;12.52;;
69185;SDS011;56298;49.246;9.410;2023-02-12T12:03:48;19.00;;;11.07;;
69185;SDS011;56298;49.246;9.410;2023-02-12T12:11:43;10.68;;;5.80;;
69185;SDS011;56298;49.246;9.410;2023-02-12T12:14:16;11.13;;;6.20;;
69185;SDS011;56298;49.246;9.410;2023-02-12T12:17:10;10.85;;;5.20;;
69185;SDS011;56298;49.246;9.410;2023-02-12T12:20:09;7.73;;;3.60;;
69185;SDS011;56298;49.246;9.410;2023-02-12T12:22:52;6.85;;;3.58;;
69185;SDS011;56298;49.246;9.410;2023-02-12T12:25:28;7.97;;;3.47;;
69185;SDS011;56298;49.246;9.410;2023-02-12T12:33:37;10.57;;;5.28;;
69185;SDS011;56298;49.246;9.410;2023-02-12T12:52:59;15.05;;;7.82;;
69185;SDS011;56298;49.246;9.410;2023-02-12T12:58:22;15.90;;;8.57;;
69185;SDS011;56298;49.246;9.410;2023-02-12T13:01:09;17.60;;;9.07;;
69185;SDS011;56298;49.246;9.410;2023-02-12T13:12:08;15.90;;;8.80;;
69185;SDS011;56298;49.246;9.410;2023-02-12T13:18:05;14.20;;;7.87;;
69185;SDS011;56298;49.246;9.410;2023-02-12T13:23:22;14.25;;;7.22;;
69185;SDS011;56298;49.246;9.410;2023-02-12T13:28:37;14.25;;;7.65;;
69185;SDS011;56298;49.246;9.410;2023-02-12T13:31:09;13.55;;;7.60;;
69185;SDS011;56298;49.246;9.410;2023-02-12T13:33:40;12.98;;;7.25;;
69185;SDS011;56298;49.246;9.410;2023-02-12T13:36:12;15.07;;;7.90;;
69185;SDS011;56298;49.246;9.410;2023-02-12T13:41:36;16.17;;;8.27;;
69185;SDS011;56298;49.246;9.410;2023-02-12T13:46:58;14.00;;;7.07;;
69185;SDS011;56298;49.246;9.410;2023-02-12T13:52:39;12.55;;;6.88;;
69185;SDS011;56298;49.246;9.410;2023-02-12T14:00:57;13.80;;;6.55;;
69185;SDS011;56298;49.246;9.410;2023-02-12T14:03:28;11.80;;;6.45;;
69185;SDS011;56298;49.246;9.410;2023-02-12T14:08:41;14.20;;;6.82;;
69185;SDS011;56298;49.246;9.410;2023-02-12T14:11:16;12.60;;;6.72;;
69185;SDS011;56298;49.246;9.410;2023-02-12T14:13:49;12.80;;;6.83;;
69185;SDS011;56298;49.246;9.410;2023-02-12T14:19:20;12.93;;;6.80;;
69185;SDS011;56298;49.246;9.410;2023-02-12T14:21:57;14.30;;;7.10;;
69185;SDS011;56298;49.246;9.410;2023-02-12T14:27:04;14.00;;;7.00;;
69185;SDS011;56298;49.246;9.410;2023-02-12T14:29:46;14.85;;;6.88;;
69185;SDS011;56298;49.246;9.410;2023-02-12T14:37:57;14.13;;;7.38;;
69185;SDS011;56298;49.246;9.410;2023-02-12T14:45:56;14.60;;;6.95;;
69185;SDS011;56298;49.246;9.410;2023-02-12T14:54:35;12.87;;;6.73;;
69185;SDS011;56298;49.246;9.410;2023-02-12T14:57:25;12.32;;;6.43;;
69185;SDS011;56298;49.246;9.410;2023-02-12T14:59:51;12.67;;;6.97;;
69185;SDS011;56298;49.246;9.410;2023-02-12T15:02:27;12.75;;;6.68;;
69185;SDS011;56298;49.246;9.410;2023-02-12T15:04:58;12.85;;;6.65;;
69185;SDS011;56298;49.246;9.410;2023-02-12T15:07:29;13.25;;;6.93;;
69185;SDS011;56298;49.246;9.410;2023-02-12T15:10:00;12.85;;;6.70;;
69185;SDS011;56298;49.246;9.410;2023-02-12T15:12:36;13.52;;;6.60;;
69185;SDS011;56298;49.246;9.410;2023-02-12T15:17:57;13.52;;;6.80;;
69185;SDS011;56298;49.246;9.410;2023-02-12T15:20:29;12.90;;;6.70;;
69185;SDS011;56298;49.246;9.410;2023-02-12T15:22:58;11.75;;;6.70;;
69185;SDS011;56298;49.246;9.410;2023-02-12T15:25:30;12.10;;;6.23;;
69185;SDS011;56298;49.246;9.410;2023-02-12T15:27:57;12.65;;;6.70;;
69185;SDS011;56298;49.246;9.410;2023-02-12T15:30:25;14.15;;;6.82;;
69185;SDS011;56298;49.246;9.410;2023-02-12T15:32:55;11.38;;;6.20;;
69185;SDS011;56298;49.246;9.410;2023-02-12T15:36:04;13.20;;;7.00;;
69185;SDS011;56298;49.246;9.410;2023-02-12T15:38:20;13.00;;;6.87;;
69185;SDS011;56298;49.246;9.410;2023-02-12T15:40:53;12.13;;;6.50;;
69185;SDS011;56298;49.246;9.410;2023-02-12T15:43:20;12.95;;;6.72;;
69185;SDS011;56298;49.246;9.410;2023-02-12T15:45:50;12.07;;;6.68;;
69185;SDS011;56298;49.246;9.410;2023-02-12T15:48:17;13.15;;;6.78;;
69185;SDS011;56298;49.246;9.410;2023-02-12T15:50:51;13.18;;;6.88;;
69185;SDS011;56298;49.246;9.410;2023-02-12T15:53:19;13.63;;;6.90;;
69185;SDS011;56298;49.246;9.410;2023-02-12T15:55:47;14.23;;;7.22;;
69185;SDS011;56298;49.246;9.410;2023-02-12T15:58:36;13.82;;;6.95;;
69185;SDS011;56298;49.246;9.410;2023-02-12T16:01:06;13.70;;;7.10;;
69185;SDS011;56298;49.246;9.410;2023-02-12T16:03:35;13.70;;;7.47;;
69185;SDS011;56298;49.246;9.410;2023-02-12T16:06:03;13.05;;;7.18;;
69185;SDS011;56298;49.246;9.410;2023-02-12T16:08:37;14.53;;;7.23;;
69185;SDS011;56298;49.246;9.410;2023-02-12T16:11:04;13.30;;;7.00;;
69185;SDS011;56298;49.246;9.410;2023-02-12T16:13:38;14.10;;;7.10;;
69185;SDS011;56298;49.246;9.410;2023-02-12T16:16:42;15.23;;;7.43;;
69185;SDS011;56298;49.246;9.410;2023-02-12T16:21:50;12.48;;;7.05;;
69185;SDS011;56298;49.246;9.410;2023-02-12T16:24:30;14.05;;;6.93;;
69185;SDS011;56298;49.246;9.410;2023-02-12T16:27:01;12.95;;;7.00;;
69185;SDS011;56298;49.246;9.410;2023-02-12T16:29:48;13.68;;;7.00;;
69185;SDS011;56298;49.246;9.410;2023-02-12T16:42:38;13.60;;;7.00;;
69185;SDS011;56298;49.246;9.410;2023-02-12T16:47:50;14.80;;;7.15;;
69185;SDS011;56298;49.246;9.410;2023-02-12T16:50:23;12.93;;;6.88;;
69185;SDS011;56298;49.246;9.410;2023-02-12T16:52:58;14.35;;;7.15;;
69185;SDS011;56298;49.246;9.410;2023-02-12T16:55:25;12.18;;;6.57;;
69185;SDS011;56298;49.246;9.410;2023-02-12T16:57:50;12.20;;;6.87;;
69185;SDS011;56298;49.246;9.410;2023-02-12T17:00:16;14.07;;;7.50;;
69185;SDS011;56298;49.246;9.410;2023-02-12T17:02:42;14.80;;;7.65;;
69185;SDS011;56298;49.246;9.410;2023-02-12T17:05:07;15.13;;;7.70;;
69185;SDS011;56298;49.246;9.410;2023-02-12T17:07:34;14.80;;;7.85;;
69185;SDS011;56298;49.246;9.410;2023-02-12T17:09:59;15.27;;;8.10;;
69185;SDS011;56298;49.246;9.410;2023-02-12T17:12:25;14.87;;;7.90;;
69185;SDS011;56298;49.246;9.410;2023-02-12T17:14:50;14.52;;;7.55;;
69185;SDS011;56298;49.246;9.410;2023-02-12T17:17:16;12.75;;;7.70;;